Speed, Missouri
Current Conditions -  °F | °C
As of 9:55 PM on Thursday 27 Nov 2014 (Local Time) from KVER Reporting Station
Clear Clear  
Wind Chill: -4°   Ceiling: Unl
Heat Index:   Visibility: 10mi
Dew Point: -4°   Wind: 6mph
Humidity: 76%   Direction: 130°SE
Pressure: 30.36"   Gusts: NA
Location:  38.8814°N, 92.7602°W
Report Text: KVER 280355Z AUTO 13005KT 10SM CLR 00/M04 A3036 RMK AO2 T10041042
Loading
Personal Weather Stations






























Interactive Weather Map New forecast layout! Learn more

10-Day Weather Forecast

Advertisements
Track Severe Weather on mobile